Time;durP1;ratioP1;P1;durP2;ratioP2;P2;SDS_P1;SDS_P2;PMS_P1;PMS_P2;Temp;Humidity;BMP_temperature;BMP_pressure;BME280_temperature;BME280_humidity;BME280_pressure;Samples;Min_cycle;Max_cycle;Signal;HPM_P1;HPM_P2
2023/07/09 00:00:51;;;;;;;;;;;;;;;24.82;46.16;100074.53;1087855;54;19942;-89
2023/07/09 00:01:55;;;;;;;;;;;;;;;24.73;46.28;100076.81;1087778;47;19945;-89
2023/07/09 00:05:24;;;;;;;;;;;;;;;24.50;47.37;100084.94;1088430;54;19939;-90
2023/07/09 00:06:24;;;;;;;;;;;;;;;24.43;47.80;100088.63;1088849;39;20796;-89
2023/07/09 00:08:48;;;;;;;;;;;;;;;24.37;47.68;100091.47;1076504;54;19946;31
2023/07/09 00:15:40;;;;;;;;;;;;;;;24.02;48.96;100089.50;1087728;54;21021;-90
2023/07/09 00:16:44;;;;;;;;;;;;;;;24.00;48.84;100089.72;1089394;39;20585;-90
2023/07/09 00:17:48;;;;;;;;;;;;;;;23.93;48.92;100091.69;1088035;47;19938;-88
2023/07/09 00:18:49;;;;;;;;;;;;;;;23.86;49.11;100089.03;1087919;47;19932;-90
2023/07/09 00:19:53;;;;;;;;;;;;;;;23.84;49.10;100085.75;1088022;54;19949;-90
2023/07/09 00:20:54;;;;;;;;;;;;;;;23.83;49.03;100089.53;1087485;54;19943;-89
2023/07/09 00:21:57;;;;;;;;;;;;;;;23.79;49.60;100094.63;1087153;47;19939;-88
2023/07/09 00:22:58;;;;;;;;;;;;;;;23.77;49.52;100102.19;1087277;47;20038;-88
2023/07/09 00:24:04;;;;;;;;;;;;;;;23.72;49.92;100093.84;1087298;47;20615;-88
2023/07/09 00:25:08;;;;;;;;;;;;;;;23.74;49.87;100094.47;1087336;54;19977;-88
2023/07/09 00:26:09;;;;;;;;;;;;;;;23.71;50.06;100102.28;1087312;54;20687;-88
2023/07/09 00:27:14;;;;;;;;;;;;;;;23.68;49.95;100093.50;1087292;47;19949;-90
2023/07/09 00:28:17;;;;;;;;;;;;;;;23.61;50.53;100100.94;1087344;47;19945;-88
2023/07/09 00:30:27;;;;;;;;;;;;;;;23.56;50.54;100099.97;1083516;54;19949;31
2023/07/09 00:32:51;;;;;;;;;;;;;;;23.49;50.64;100091.84;1078708;54;19926;-87
2023/07/09 00:35:21;;;;;;;;;;;;;;;23.40;50.35;100094.06;1083382;54;20015;-87
2023/07/09 00:37:36;;;;;;;;;;;;;;;23.34;50.73;100100.44;1082910;54;21018;31
2023/07/09 00:38:38;;;;;;;;;;;;;;;23.27;51.49;100097.81;1087886;47;19945;-91
2023/07/09 00:43:48;;;;;;;;;;;;;;;23.14;51.80;100106.09;1075758;39;20283;31
2023/07/09 00:44:51;;;;;;;;;;;;;;;23.11;51.56;100098.34;1087737;47;19926;-89
2023/07/09 00:46:09;;;;;;;;;;;;;;;23.12;51.67;100103.59;1087836;54;19949;-90
2023/07/09 00:47:21;;;;;;;;;;;;;;;23.13;51.59;100098.97;1088163;46;21004;-89
2023/07/09 00:52:29;;;;;;;;;;;;;;;23.07;52.70;100106.16;1072685;54;20196;-88
2023/07/09 00:53:34;;;;;;;;;;;;;;;23.04;52.19;100103.91;1088117;47;19942;-88
2023/07/09 00:55:46;;;;;;;;;;;;;;;22.89;52.78;100104.25;1081509;54;24296;31
2023/07/09 00:56:51;;;;;;;;;;;;;;;22.88;53.06;100108.84;1088236;47;19954;-89
2023/07/09 01:05:57;;;;;;;;;;;;;;;22.55;53.94;100109.16;1077741;54;20752;-85
2023/07/09 07:01:19;;;;;;;;;;;;;;;25.41;49.44;100229.56;1082988;54;19946;-89
2023/07/09 07:02:20;;;;;;;;;;;;;;;25.54;49.04;100225.75;1087212;46;20101;-89
2023/07/09 07:03:23;;;;;;;;;;;;;;;25.62;48.61;100225.38;1087100;47;19949;-86
2023/07/09 07:04:25;;;;;;;;;;;;;;;25.76;48.32;100219.66;1087626;54;19999;-87
2023/07/09 07:05:29;;;;;;;;;;;;;;;25.86;48.46;100217.13;1087396;46;19943;-86
2023/07/09 07:06:30;;;;;;;;;;;;;;;25.96;47.82;100220.09;1087880;54;20002;-90
2023/07/09 07:07:31;;;;;;;;;;;;;;;26.08;47.74;100219.19;1087532;47;19946;-87
2023/07/09 07:09:37;;;;;;;;;;;;;;;26.28;47.22;100211.41;1088368;54;19942;-85
2023/07/09 07:10:37;;;;;;;;;;;;;;;26.41;46.92;100214.91;1088230;47;19962;-87
2023/07/09 07:11:41;;;;;;;;;;;;;;;26.50;46.64;100212.63;1088227;54;19966;-86
2023/07/09 07:12:43;;;;;;;;;;;;;;;26.60;46.50;100212.78;1087987;54;19950;-87
2023/07/09 07:13:48;;;;;;;;;;;;;;;26.67;46.48;100220.84;1087576;47;19943;-87
2023/07/09 07:14:48;;;;;;;;;;;;;;;26.67;46.14;100215.34;1088262;39;20693;-85
2023/07/09 07:15:52;;;;;;;;;;;;;;;26.79;46.31;100221.63;1087865;54;19943;-86
2023/07/09 07:16:55;;;;;;;;;;;;;;;26.89;46.10;100210.84;1087433;47;19946;-85
2023/07/09 07:17:59;;;;;;;;;;;;;;;26.97;45.92;100209.56;1087661;54;19938;-86
2023/07/09 07:18:59;;;;;;;;;;;;;;;27.07;45.44;100212.47;1087984;54;19934;-86
2023/07/09 07:20:03;;;;;;;;;;;;;;;27.15;45.52;100211.22;1087503;47;20254;-86
2023/07/09 07:21:04;;;;;;;;;;;;;;;27.23;45.14;100204.50;1087411;54;19942;-85
2023/07/09 07:22:08;;;;;;;;;;;;;;;27.07;45.06;100201.50;1087176;47;19946;-86
2023/07/09 07:23:09;;;;;;;;;;;;;;;26.97;45.07;100203.28;1087322;54;19942;-84
2023/07/09 07:24:10;;;;;;;;;;;;;;;26.89;45.01;100202.63;1087039;47;19938;-86
2023/07/09 07:25:13;;;;;;;;;;;;;;;26.86;45.23;100211.34;1087466;54;19943;-82
2023/07/09 07:26:14;;;;;;;;;;;;;;;27.03;45.12;100205.00;1087483;54;19947;-84
2023/07/09 07:27:17;;;;;;;;;;;;;;;27.07;45.11;100200.69;1087386;47;19946;-82
2023/07/09 07:28:18;;;;;;;;;;;;;;;27.07;44.81;100208.91;1087500;54;19934;-84
2023/07/09 07:29:21;;;;;;;;;;;;;;;27.08;44.32;100207.84;1087297;47;19938;-84
2023/07/09 07:30:22;;;;;;;;;;;;;;;27.29;44.83;100199.91;1087416;54;19990;-83
2023/07/09 07:31:25;;;;;;;;;;;;;;;27.37;44.53;100199.47;1087048;47;19939;-84
2023/07/09 07:32:29;;;;;;;;;;;;;;;27.50;44.31;100198.31;1086918;47;19938;-84
2023/07/09 07:33:32;;;;;;;;;;;;;;;27.61;43.93;100193.78;1086872;47;21090;-83
2023/07/09 07:34:33;;;;;;;;;;;;;;;27.75;43.64;100188.72;1086907;54;20853;-85
2023/07/09 07:35:36;;;;;;;;;;;;;;;27.69;43.84;100191.44;1086933;47;19938;-84
2023/07/09 07:36:37;;;;;;;;;;;;;;;27.63;44.21;100197.91;1087018;39;20499;-83
2023/07/09 07:37:40;;;;;;;;;;;;;;;27.58;43.37;100194.31;1086992;47;19939;-84
2023/07/09 07:38:41;;;;;;;;;;;;;;;27.79;43.55;100187.97;1086880;54;19942;-86
2023/07/09 07:39:44;;;;;;;;;;;;;;;27.97;43.08;100188.72;1087073;54;19947;-82
2023/07/09 07:40:46;;;;;;;;;;;;;;;28.03;42.76;100187.69;1086865;47;19938;-86
2023/07/09 07:41:50;;;;;;;;;;;;;;;27.90;42.92;100190.84;1086683;46;19979;-83
2023/07/09 07:42:51;;;;;;;;;;;;;;;27.82;42.61;100189.38;1087518;39;20490;-84
2023/07/09 07:43:55;;;;;;;;;;;;;;;27.76;42.91;100191.25;1086649;46;19958;-83
2023/07/09 07:44:55;;;;;;;;;;;;;;;27.68;42.98;100184.28;1086728;54;19942;-84
2023/07/09 07:45:59;;;;;;;;;;;;;;;27.74;42.87;100178.84;1086711;54;20705;-85
2023/07/09 07:46:59;;;;;;;;;;;;;;;27.80;42.52;100181.38;1086790;54;19942;-83
2023/07/09 07:48:06;;;;;;;;;;;;;;;27.94;42.72;100183.75;1086621;54;19970;-83
2023/07/09 07:49:06;;;;;;;;;;;;;;;27.93;42.60;100179.34;1086574;47;19942;-83
2023/07/09 07:50:10;;;;;;;;;;;;;;;27.99;42.39;100172.81;1086562;47;20563;-84
2023/07/09 07:51:11;;;;;;;;;;;;;;;28.11;41.99;100180.91;1086549;47;19939;-84
2023/07/09 07:52:14;;;;;;;;;;;;;;;28.20;42.07;100184.06;1086615;54;19955;-84
2023/07/09 07:53:15;;;;;;;;;;;;;;;28.38;41.41;100178.19;1086742;47;19938;-85
2023/07/09 07:54:19;;;;;;;;;;;;;;;28.47;41.45;100179.38;1086746;54;19943;-85
2023/07/09 07:55:19;;;;;;;;;;;;;;;28.69;41.12;100178.47;1086712;54;19958;-84
2023/07/09 07:56:23;;;;;;;;;;;;;;;28.92;40.85;100179.19;1087024;31;20595;-83
2023/07/09 07:57:25;;;;;;;;;;;;;;;29.07;40.61;100173.81;1086158;54;19973;-82
2023/07/09 07:58:25;;;;;;;;;;;;;;;29.17;40.30;100172.22;1085787;54;20617;-84
2023/07/09 07:59:29;;;;;;;;;;;;;;;29.20;40.48;100177.16;1086036;46;19972;-84
2023/07/09 08:00:30;;;;;;;;;;;;;;;29.44;39.95;100168.53;1086069;47;19946;-83
2023/07/09 08:01:35;;;;;;;;;;;;;;;29.60;39.81;100173.00;1085979;54;21028;-85
2023/07/09 08:02:35;;;;;;;;;;;;;;;29.77;39.62;100166.44;1087389;39;20108;-85
2023/07/09 08:03:42;;;;;;;;;;;;;;;29.84;39.33;100167.88;1086177;47;19938;-81
2023/07/09 08:04:43;;;;;;;;;;;;;;;29.88;39.11;100162.63;1086513;47;19947;-82
2023/07/09 08:05:50;;;;;;;;;;;;;;;29.95;38.75;100166.00;1085561;47;19953;-80
2023/07/09 08:06:52;;;;;;;;;;;;;;;30.06;38.85;100172.38;1085310;47;20446;-81
2023/07/09 08:07:55;;;;;;;;;;;;;;;30.12;38.69;100170.44;1085354;54;19961;-82
2023/07/09 08:08:56;;;;;;;;;;;;;;;30.14;38.50;100165.47;1085694;47;19947;-82
2023/07/09 08:09:59;;;;;;;;;;;;;;;30.16;38.23;100166.03;1085711;54;20019;-83
2023/07/09 08:11:00;;;;;;;;;;;;;;;30.19;38.21;100171.00;1085542;47;19972;-82
2023/07/09 08:12:09;;;;;;;;;;;;;;;30.31;37.97;100155.06;1085990;54;19951;-81
2023/07/09 08:13:10;;;;;;;;;;;;;;;30.29;38.03;100159.16;1085661;47;19953;-82
2023/07/09 08:14:13;;;;;;;;;;;;;;;30.49;37.68;100167.44;1085687;47;19981;-82
2023/07/09 08:15:14;;;;;;;;;;;;;;;30.60;37.60;100162.81;1085596;47;19974;-82
2023/07/09 08:16:18;;;;;;;;;;;;;;;30.73;37.55;100160.56;1085224;47;20326;-82
2023/07/09 08:17:19;;;;;;;;;;;;;;;30.76;37.13;100155.34;1085628;39;20528;-83
2023/07/09 08:18:20;;;;;;;;;;;;;;;30.83;37.09;100159.75;1085731;54;20096;-83
2023/07/09 08:19:26;;;;;;;;;;;;;;;30.92;36.83;100156.13;1085716;54;20926;-83
2023/07/09 08:20:26;;;;;;;;;;;;;;;30.95;36.47;100155.59;1085674;47;19950;-82
2023/07/09 08:21:30;;;;;;;;;;;;;;;31.02;36.33;100158.06;1085423;47;20060;-82
2023/07/09 08:22:31;;;;;;;;;;;;;;;31.18;36.53;100156.09;1085323;47;19977;-81
2023/07/09 08:23:34;;;;;;;;;;;;;;;31.24;36.33;100154.16;1085350;54;19950;-82
2023/07/09 08:24:35;;;;;;;;;;;;;;;31.03;35.54;100153.38;1085732;54;19965;-83
2023/07/09 08:25:38;;;;;;;;;;;;;;;30.99;35.54;100155.00;1085784;47;19946;-82
2023/07/09 08:26:39;;;;;;;;;;;;;;;31.11;35.34;100158.34;1087016;39;20394;-82
2023/07/09 08:27:43;;;;;;;;;;;;;;;31.34;35.71;100154.13;1085436;47;19946;-82
2023/07/09 08:28:43;;;;;;;;;;;;;;;31.44;35.65;100153.28;1085162;46;19978;-83
2023/07/09 08:29:47;;;;;;;;;;;;;;;31.48;34.99;100148.84;1085395;47;19974;-82
2023/07/09 08:30:48;;;;;;;;;;;;;;;31.15;34.90;100150.31;1085856;46;19947;-81
2023/07/09 08:31:51;;;;;;;;;;;;;;;31.23;35.19;100145.06;1085864;47;19974;-83
2023/07/09 08:32:52;;;;;;;;;;;;;;;31.39;35.34;100151.38;1085802;47;19938;-82
2023/07/09 08:33:53;;;;;;;;;;;;;;;31.61;34.98;100149.34;1085397;54;19950;-82
2023/07/09 08:34:59;;;;;;;;;;;;;;;31.69;34.84;100151.53;1085174;54;20046;-82
2023/07/09 08:35:59;;;;;;;;;;;;;;;31.84;34.30;100145.91;1085065;47;19954;-82
2023/07/09 08:37:03;;;;;;;;;;;;;;;31.88;34.23;100141.50;1085761;39;20501;-83
2023/07/09 08:38:04;;;;;;;;;;;;;;;32.07;33.98;100143.56;1085101;54;19977;-82
2023/07/09 08:39:07;;;;;;;;;;;;;;;32.03;34.34;100136.97;1085209;47;19950;-82
2023/07/09 08:40:12;;;;;;;;;;;;;;;32.29;33.95;100136.84;1085346;47;19938;-82
2023/07/09 08:41:28;;;;;;;;;;;;;;;32.36;33.21;100137.31;1085072;47;19951;-82
2023/07/09 08:42:31;;;;;;;;;;;;;;;32.53;33.39;100136.06;1085347;47;19956;-83
2023/07/09 08:43:36;;;;;;;;;;;;;;;32.60;33.22;100140.16;1086718;39;20486;-83
2023/07/09 08:44:44;;;;;;;;;;;;;;;32.65;33.36;100131.81;1086273;54;20106;-82
2023/07/09 08:45:52;;;;;;;;;;;;;;;32.73;33.29;100140.59;1086047;47;20027;-82
2023/07/09 08:46:59;;;;;;;;;;;;;;;32.84;32.89;100130.28;1085790;47;19947;-81
2023/07/09 08:48:05;;;;;;;;;;;;;;;32.93;32.72;100134.06;1085067;54;20078;-82
2023/07/09 08:49:12;;;;;;;;;;;;;;;33.01;32.84;100138.94;1085632;39;20330;-81
2023/07/09 08:50:19;;;;;;;;;;;;;;;33.09;32.52;100141.06;1085589;54;19946;-82
2023/07/09 08:51:24;;;;;;;;;;;;;;;33.16;32.25;100134.38;1085247;47;19951;-81
2023/07/09 08:52:30;;;;;;;;;;;;;;;33.13;32.21;100135.78;1085353;47;19957;-80
2023/07/09 08:53:33;;;;;;;;;;;;;;;33.30;32.13;100138.06;1085423;54;19958;-81
2023/07/09 08:54:38;;;;;;;;;;;;;;;33.36;32.22;100139.69;1085457;47;20012;-81
2023/07/09 08:55:40;;;;;;;;;;;;;;;33.52;32.03;100143.09;1088332;39;20464;-82
2023/07/09 08:56:43;;;;;;;;;;;;;;;33.53;31.36;100150.28;1085664;54;19950;-82
2023/07/09 08:57:47;;;;;;;;;;;;;;;33.54;31.66;100145.56;1085501;54;20577;-83
2023/07/09 08:58:52;;;;;;;;;;;;;;;33.66;32.02;100139.59;1085766;54;19942;-82
2023/07/09 08:59:56;;;;;;;;;;;;;;;33.59;31.51;100145.50;1085645;54;20041;-81
2023/07/09 09:01:00;;;;;;;;;;;;;;;33.57;31.50;100137.50;1085318;54;20006;-82
2023/07/09 09:02:03;;;;;;;;;;;;;;;33.72;31.44;100130.09;1085522;54;19961;-81
2023/07/09 09:03:10;;;;;;;;;;;;;;;33.91;31.12;100132.91;1085795;54;19952;-81
2023/07/09 09:04:15;;;;;;;;;;;;;;;33.95;31.26;100136.72;1086257;54;19949;-80
2023/07/09 09:05:23;;;;;;;;;;;;;;;33.95;31.07;100141.44;1086673;54;19962;-83
2023/07/09 09:06:26;;;;;;;;;;;;;;;33.81;30.98;100127.47;1086383;54;19949;-83
2023/07/09 09:07:36;;;;;;;;;;;;;;;34.05;31.25;100136.56;1086718;46;19976;-82
2023/07/09 09:08:39;;;;;;;;;;;;;;;34.11;30.80;100134.53;1086239;54;19981;-82
2023/07/09 09:09:48;;;;;;;;;;;;;;;34.29;31.11;100132.03;1086796;31;20728;-83
2023/07/09 09:10:57;;;;;;;;;;;;;;;34.42;30.47;100134.09;1086774;54;20438;-83
2023/07/09 09:12:05;;;;;;;;;;;;;;;34.29;30.30;100132.84;1087179;54;19966;-82
2023/07/09 09:13:10;;;;;;;;;;;;;;;34.50;30.19;100143.63;1087083;39;20304;-82
2023/07/09 09:14:32;;;;;;;;;;;;;;;34.49;30.59;100130.88;1086770;54;19966;-82
2023/07/09 09:15:34;;;;;;;;;;;;;;;34.74;30.39;100134.34;1086588;47;19950;-82
2023/07/09 09:16:40;;;;;;;;;;;;;;;34.82;30.12;100122.53;1086333;54;19946;-82
2023/07/09 09:17:41;;;;;;;;;;;;;;;34.58;29.75;100129.06;1086409;54;19942;-81
2023/07/09 09:18:45;;;;;;;;;;;;;;;34.72;29.65;100125.50;1086007;39;20420;-81
2023/07/09 09:19:52;;;;;;;;;;;;;;;34.71;29.89;100119.16;1085421;54;19950;-82
2023/07/09 09:21:00;;;;;;;;;;;;;;;34.75;29.90;100125.72;1085120;47;19946;-83
2023/07/09 09:22:03;;;;;;;;;;;;;;;34.99;29.87;100128.34;1085360;54;19957;-82
2023/07/09 09:23:15;;;;;;;;;;;;;;;35.21;28.94;100118.50;1085317;47;19946;-82
2023/07/09 09:24:19;;;;;;;;;;;;;;;35.26;29.22;100114.78;1085415;54;19950;-82
2023/07/09 09:25:27;;;;;;;;;;;;;;;35.37;28.92;100115.38;1086964;39;20817;-82
2023/07/09 09:26:30;;;;;;;;;;;;;;;35.52;28.78;100117.84;1085410;54;19999;-82
2023/07/09 09:27:33;;;;;;;;;;;;;;;35.67;28.32;100121.44;1085529;47;20030;-82
2023/07/09 09:28:35;;;;;;;;;;;;;;;35.79;28.52;100113.38;1085629;47;20882;-82
2023/07/09 09:29:39;;;;;;;;;;;;;;;35.86;28.17;100111.00;1085465;54;19988;-83
2023/07/09 09:30:40;;;;;;;;;;;;;;;35.84;27.89;100112.44;1086801;39;20940;-83
2023/07/09 09:31:45;;;;;;;;;;;;;;;35.81;28.00;100118.63;1085653;54;19950;-82
2023/07/09 09:32:48;;;;;;;;;;;;;;;35.80;28.03;100114.19;1085597;54;19950;-82
2023/07/09 09:33:52;;;;;;;;;;;;;;;35.67;28.15;100107.53;1085628;54;19962;-81
2023/07/09 09:34:53;;;;;;;;;;;;;;;35.65;28.05;100113.41;1085814;54;19946;-81
2023/07/09 09:36:06;;;;;;;;;;;;;;;35.29;28.38;100109.44;1085886;54;19946;-81
2023/07/09 09:37:10;;;;;;;;;;;;;;;35.43;28.35;100108.59;1085364;47;19972;-80
2023/07/09 09:38:14;;;;;;;;;;;;;;;35.64;28.69;100103.44;1086309;31;20431;-81
2023/07/09 09:39:16;;;;;;;;;;;;;;;35.82;27.90;100101.63;1085568;54;20567;-81
2023/07/09 09:40:21;;;;;;;;;;;;;;;35.94;27.38;100103.06;1085764;54;19949;-81
2023/07/09 09:41:24;;;;;;;;;;;;;;;35.86;27.64;100107.38;1085592;54;19965;-82
2023/07/09 09:42:27;;;;;;;;;;;;;;;35.87;28.19;100109.00;1085440;54;19951;-82
2023/07/09 09:43:32;;;;;;;;;;;;;;;35.90;28.10;100105.63;1085396;54;19965;-81
2023/07/09 09:44:35;;;;;;;;;;;;;;;36.01;27.87;100114.56;1085423;47;20056;-82
2023/07/09 09:45:38;;;;;;;;;;;;;;;36.10;27.69;100106.28;1085904;54;19943;-81
2023/07/09 09:46:42;;;;;;;;;;;;;;;36.09;27.57;100110.22;1085266;47;19946;-81
2023/07/09 09:47:43;;;;;;;;;;;;;;;36.22;27.04;100107.38;1086279;39;20442;-80
2023/07/09 09:48:47;;;;;;;;;;;;;;;35.81;26.99;100099.97;1085647;54;19953;-82
2023/07/09 09:49:48;;;;;;;;;;;;;;;35.80;27.44;100095.56;1085640;54;19951;-81
2023/07/09 09:50:55;;;;;;;;;;;;;;;36.06;27.22;100106.09;1085269;54;19958;-81
2023/07/09 09:52:01;;;;;;;;;;;;;;;35.82;27.35;100103.59;1086286;54;19951;-81
2023/07/09 09:53:09;;;;;;;;;;;;;;;36.06;26.84;100106.09;1085294;47;19998;-81
2023/07/09 09:54:14;;;;;;;;;;;;;;;36.13;26.72;100109.25;1085842;54;19962;-81
2023/07/09 09:55:20;;;;;;;;;;;;;;;36.10;26.54;100107.09;1085968;54;19950;-81
2023/07/09 09:56:26;;;;;;;;;;;;;;;36.32;26.26;100111.03;1085469;54;19950;-80
2023/07/09 09:57:30;;;;;;;;;;;;;;;36.49;25.90;100116.72;1085702;47;19946;-81
2023/07/09 09:58:31;;;;;;;;;;;;;;;36.52;26.16;100113.31;1085977;39;20755;-81
2023/07/09 09:59:35;;;;;;;;;;;;;;;36.03;26.19;100115.06;1087283;39;20526;-81
2023/07/09 10:00:36;;;;;;;;;;;;;;;36.11;26.42;100108.75;1085744;47;19958;-80
2023/07/09 10:01:39;;;;;;;;;;;;;;;36.30;25.88;100113.28;1086598;39;20833;-81
2023/07/09 10:02:41;;;;;;;;;;;;;;;36.42;25.94;100110.81;1085885;47;19953;-81
2023/07/09 10:03:44;;;;;;;;;;;;;;;36.58;25.57;100100.09;1085738;54;19947;-81
2023/07/09 10:04:45;;;;;;;;;;;;;;;36.56;25.43;100099.59;1086396;54;19951;-81
2023/07/09 10:05:52;;;;;;;;;;;;;;;36.60;25.52;100099.75;1085947;47;19964;-81
2023/07/09 10:06:56;;;;;;;;;;;;;;;36.31;25.60;100098.25;1086328;47;20627;-82
2023/07/09 10:08:04;;;;;;;;;;;;;;;36.04;25.87;100106.41;1086194;47;19945;-83
2023/07/09 10:09:08;;;;;;;;;;;;;;;36.32;25.55;100102.69;1086471;54;19943;-82
2023/07/09 10:10:15;;;;;;;;;;;;;;;36.45;25.25;100101.81;1086404;39;20413;-82
2023/07/09 10:11:18;;;;;;;;;;;;;;;36.67;25.14;100100.13;1085960;54;19976;-83
2023/07/09 10:12:34;;;;;;;;;;;;;;;36.70;25.02;100099.50;1086034;47;20165;-81
2023/07/09 10:13:39;;;;;;;;;;;;;;;36.80;24.78;100093.66;1087281;39;20473;-81
2023/07/09 10:14:47;;;;;;;;;;;;;;;37.03;24.56;100087.19;1086179;47;20485;-82
2023/07/09 10:15:51;;;;;;;;;;;;;;;37.14;24.46;100086.56;1085939;54;20488;-82
2023/07/09 10:17:00;;;;;;;;;;;;;;;37.33;23.92;100093.03;1086082;54;19958;-81
2023/07/09 10:18:03;;;;;;;;;;;;;;;37.40;23.00;100090.59;1086120;47;19963;-82
2023/07/09 10:19:14;;;;;;;;;;;;;;;37.41;21.97;100087.47;1086348;47;19993;-82
2023/07/09 10:20:21;;;;;;;;;;;;;;;37.34;21.81;100089.91;1086383;47;19954;-80
2023/07/09 10:21:31;;;;;;;;;;;;;;;37.41;21.21;100087.47;1086659;54;19957;-80
2023/07/09 10:22:40;;;;;;;;;;;;;;;37.42;21.81;100086.34;1086238;54;19947;-80
2023/07/09 10:23:53;;;;;;;;;;;;;;;37.52;21.71;100085.22;1086014;54;19950;-81
2023/07/09 10:24:58;;;;;;;;;;;;;;;37.64;21.84;100081.78;1085812;54;20009;-80
2023/07/09 10:26:05;;;;;;;;;;;;;;;37.82;21.53;100087.34;1085466;54;19959;-80
2023/07/09 10:27:09;;;;;;;;;;;;;;;37.89;21.90;100091.34;1085695;54;19950;-81
2023/07/09 10:28:21;;;;;;;;;;;;;;;37.85;21.67;100073.56;1086437;54;19950;-81
2023/07/09 10:29:37;;;;;;;;;;;;;;;38.02;21.06;100080.34;1087199;39;20762;-82
2023/07/09 10:30:49;;;;;;;;;;;;;;;38.01;20.94;100073.13;1086149;39;20841;-82
2023/07/09 10:31:55;;;;;;;;;;;;;;;37.88;19.90;100084.09;1086004;47;20550;-81
2023/07/09 10:33:10;;;;;;;;;;;;;;;37.85;20.12;100079.16;1086729;54;19947;-81
2023/07/09 10:34:17;;;;;;;;;;;;;;;37.84;20.08;100073.91;1086612;47;19974;-80
2023/07/09 10:35:24;;;;;;;;;;;;;;;37.57;20.36;100073.09;1086318;54;20124;-80
2023/07/09 10:36:30;;;;;;;;;;;;;;;37.82;20.88;100071.47;1086031;46;19974;-81
2023/07/09 10:37:50;;;;;;;;;;;;;;;37.91;20.52;100077.03;1086118;47;19946;-81
2023/07/09 10:38:56;;;;;;;;;;;;;;;37.96;20.42;100070.47;1086344;47;19939;-83
2023/07/09 10:40:00;;;;;;;;;;;;;;;37.85;20.43;100072.75;1086707;46;19947;-82
2023/07/09 10:41:05;;;;;;;;;;;;;;;37.96;20.67;100062.94;1087437;39;20460;-80
2023/07/09 10:42:11;;;;;;;;;;;;;;;38.09;20.30;100066.69;1086533;54;19950;-81
2023/07/09 10:43:14;;;;;;;;;;;;;;;37.81;19.85;100063.41;1086815;54;19966;-82
2023/07/09 10:44:21;;;;;;;;;;;;;;;37.60;20.25;100066.84;1087998;39;20712;-82
2023/07/09 10:45:24;;;;;;;;;;;;;;;37.75;19.53;100060.78;1086920;54;20508;-82
2023/07/09 10:46:28;;;;;;;;;;;;;;;37.97;19.33;100064.59;1086722;54;19942;-81
2023/07/09 10:47:31;;;;;;;;;;;;;;;38.18;18.82;100061.94;1087342;39;20906;-81
2023/07/09 10:48:38;;;;;;;;;;;;;;;38.18;17.98;100063.88;1086262;46;19946;-81
2023/07/09 10:49:40;;;;;;;;;;;;;;;38.17;18.34;100057.50;1086576;47;19962;-81
2023/07/09 10:50:44;;;;;;;;;;;;;;;38.24;18.30;100055.00;1086307;54;20799;-81
2023/07/09 10:51:49;;;;;;;;;;;;;;;38.32;18.24;100061.72;1086358;47;19938;-82
2023/07/09 10:52:55;;;;;;;;;;;;;;;38.48;18.21;100045.28;1087509;39;20400;-80
2023/07/09 10:54:02;;;;;;;;;;;;;;;38.57;18.30;100053.63;1086476;54;19958;-82
2023/07/09 10:55:07;;;;;;;;;;;;;;;38.70;18.09;100046.16;1086436;54;19974;-81
2023/07/09 10:56:10;;;;;;;;;;;;;;;38.82;17.67;100054.69;1086511;39;20481;-81
2023/07/09 10:57:16;;;;;;;;;;;;;;;38.79;17.27;100060.09;1086196;54;19951;-82
2023/07/09 10:58:26;;;;;;;;;;;;;;;38.88;17.53;100049.75;1086825;39;20185;-81
2023/07/09 10:59:31;;;;;;;;;;;;;;;38.95;17.78;100040.84;1086924;39;20164;-81
2023/07/09 11:00:34;;;;;;;;;;;;;;;39.09;17.75;100044.19;1086306;54;20391;-81
2023/07/09 11:01:40;;;;;;;;;;;;;;;39.15;17.45;100042.84;1086354;54;20048;-81
2023/07/09 11:02:42;;;;;;;;;;;;;;;39.05;17.79;100037.66;1086254;47;20603;-81
2023/07/09 11:03:50;;;;;;;;;;;;;;;39.11;17.78;100041.09;1086469;46;19939;-81
2023/07/09 11:04:53;;;;;;;;;;;;;;;39.16;17.71;100041.69;1086489;54;19970;-82
2023/07/09 11:05:57;;;;;;;;;;;;;;;39.09;17.47;100041.41;1086491;46;20877;-81
2023/07/09 11:07:01;;;;;;;;;;;;;;;38.92;17.65;100053.47;1086234;47;19946;-81
2023/07/09 11:08:08;;;;;;;;;;;;;;;38.87;17.58;100050.91;1086193;47;19945;-82
2023/07/09 11:09:24;;;;;;;;;;;;;;;38.98;17.93;100042.94;1086470;54;19970;-81
2023/07/09 11:10:30;;;;;;;;;;;;;;;38.94;17.61;100034.41;1087100;39;20999;-82
2023/07/09 11:11:33;;;;;;;;;;;;;;;38.91;17.61;100049.09;1086202;47;19938;-81
2023/07/09 11:12:39;;;;;;;;;;;;;;;38.88;17.59;100049.75;1086386;47;19947;-82
2023/07/09 11:13:43;;;;;;;;;;;;;;;38.89;17.77;100040.22;1086220;47;19958;-81
2023/07/09 11:14:49;;;;;;;;;;;;;;;38.60;18.00;100039.00;1086434;47;19938;-80
2023/07/09 11:15:53;;;;;;;;;;;;;;;38.36;18.45;100040.38;1086804;54;19949;-81
2023/07/09 11:16:58;;;;;;;;;;;;;;;38.38;18.61;100038.09;1086127;54;20938;-82
2023/07/09 11:17:59;;;;;;;;;;;;;;;38.49;18.79;100037.72;1086286;54;19949;-80
2023/07/09 11:19:03;;;;;;;;;;;;;;;38.11;19.16;100025.34;1086566;54;20560;-81
2023/07/09 11:20:15;;;;;;;;;;;;;;;37.76;19.06;100028.13;1086852;39;20444;-80
2023/07/09 11:21:19;;;;;;;;;;;;;;;37.73;18.90;100026.84;1086690;54;19963;-81
2023/07/09 11:22:22;;;;;;;;;;;;;;;37.26;19.06;100034.97;1086997;54;20559;-80
2023/07/09 11:23:26;;;;;;;;;;;;;;;37.46;18.78;100031.59;1086959;54;20525;-81
2023/07/09 11:24:34;;;;;;;;;;;;;;;37.42;18.55;100032.56;1086302;54;19938;-81
2023/07/09 11:25:43;;;;;;;;;;;;;;;37.41;18.56;100022.56;1086438;47;19963;-80
2023/07/09 11:26:47;;;;;;;;;;;;;;;37.46;18.79;100030.75;1086544;47;19954;-80
2023/07/09 11:27:52;;;;;;;;;;;;;;;37.41;18.54;100025.38;1086044;47;19971;-80
2023/07/09 11:28:54;;;;;;;;;;;;;;;37.43;18.38;100032.25;1086478;39;20570;-81
2023/07/09 11:29:59;;;;;;;;;;;;;;;37.23;18.32;100028.09;1086339;47;19946;-82
2023/07/09 11:31:05;;;;;;;;;;;;;;;37.24;18.46;100029.75;1086419;54;19957;-81
2023/07/09 11:32:12;;;;;;;;;;;;;;;37.10;18.79;100026.25;1086910;54;19950;-82
2023/07/09 11:33:17;;;;;;;;;;;;;;;37.06;18.26;100023.31;1086348;47;19946;-82
2023/07/09 11:34:21;;;;;;;;;;;;;;;36.99;18.77;100017.41;1086046;47;19950;-81
2023/07/09 11:35:23;;;;;;;;;;;;;;;37.07;18.92;100030.53;1086391;54;19943;-82
2023/07/09 11:36:28;;;;;;;;;;;;;;;36.97;18.83;100020.53;1085842;47;19954;-81
2023/07/09 11:37:29;;;;;;;;;;;;;;;37.03;18.96;100026.75;1086608;54;19950;-81
2023/07/09 11:38:39;;;;;;;;;;;;;;;37.10;18.83;100024.31;1086701;54;19954;-80
2023/07/09 11:39:45;;;;;;;;;;;;;;;37.05;19.03;100018.06;1086386;54;19954;-82
2023/07/09 11:40:50;;;;;;;;;;;;;;;37.13;18.91;100023.66;1086386;47;19939;-81
2023/07/09 11:41:50;;;;;;;;;;;;;;;37.11;18.52;100028.75;1086075;47;19994;-81
2023/07/09 11:42:55;;;;;;;;;;;;;;;36.91;19.09;100032.13;1087695;39;20837;-80
2023/07/09 11:44:03;;;;;;;;;;;;;;;36.87;18.70;100022.75;1086167;46;19987;-81
2023/07/09 11:45:10;;;;;;;;;;;;;;;36.85;19.10;100029.44;1087821;39;20767;-81
2023/07/09 11:46:13;;;;;;;;;;;;;;;36.91;19.03;100018.22;1086163;47;20025;-82
2023/07/09 11:47:21;;;;;;;;;;;;;;;36.90;18.82;100020.16;1086337;54;20540;-81
2023/07/09 11:48:25;;;;;;;;;;;;;;;36.86;18.94;100024.72;1086209;47;19954;-81
2023/07/09 11:49:27;;;;;;;;;;;;;;;36.84;18.83;100025.00;1086429;39;20668;-80
2023/07/09 11:50:31;;;;;;;;;;;;;;;36.66;18.16;100015.81;1086598;54;20005;-82
2023/07/09 11:51:37;;;;;;;;;;;;;;;36.69;18.38;100020.75;1086671;47;19983;-81
2023/07/09 11:52:44;;;;;;;;;;;;;;;36.84;18.28;100015.84;1086672;54;20029;-80
2023/07/09 11:53:46;;;;;;;;;;;;;;;36.87;18.42;100014.38;1086759;54;19943;-81
2023/07/09 11:54:54;;;;;;;;;;;;;;;36.96;18.29;100018.03;1086959;54;19954;-81
2023/07/09 11:55:54;;;;;;;;;;;;;;;36.92;17.98;100017.06;1086481;47;19974;-83
2023/07/09 11:56:58;;;;;;;;;;;;;;;36.79;17.82;100011.25;1086373;54;19947;-81
2023/07/09 11:58:00;;;;;;;;;;;;;;;36.74;17.90;99997.50;1086283;47;20103;-82
2023/07/09 11:59:04;;;;;;;;;;;;;;;36.87;17.28;100003.25;1086612;54;20598;-82